sensor_id;sensor_type;location;lat;lon;timestamp;P1;durP1;ratioP1;P2;durP2;ratioP2
33022;SDS011;19390;51.460;5.710;2023-08-07T00:02:24;9.98;;;2.30;;
33022;SDS011;19390;51.460;5.710;2023-08-07T00:04:50;11.63;;;2.40;;
33022;SDS011;19390;51.460;5.710;2023-08-07T00:07:16;14.45;;;2.70;;
33022;SDS011;19390;51.460;5.710;2023-08-07T00:09:43;13.65;;;3.15;;
33022;SDS011;19390;51.460;5.710;2023-08-07T00:12:08;9.98;;;2.80;;
33022;SDS011;19390;51.460;5.710;2023-08-07T00:14:34;19.05;;;3.28;;
33022;SDS011;19390;51.460;5.710;2023-08-07T00:17:00;20.30;;;3.10;;
33022;SDS011;19390;51.460;5.710;2023-08-07T00:19:25;13.70;;;2.85;;
33022;SDS011;19390;51.460;5.710;2023-08-07T00:21:51;14.15;;;2.85;;
33022;SDS011;19390;51.460;5.710;2023-08-07T00:24:16;15.32;;;2.65;;
33022;SDS011;19390;51.460;5.710;2023-08-07T00:26:42;19.15;;;3.30;;
33022;SDS011;19390;51.460;5.710;2023-08-07T00:29:07;13.20;;;3.80;;
33022;SDS011;19390;51.460;5.710;2023-08-07T00:31:33;13.63;;;3.05;;
33022;SDS011;19390;51.460;5.710;2023-08-07T00:33:59;17.25;;;3.97;;
33022;SDS011;19390;51.460;5.710;2023-08-07T00:36:24;15.18;;;3.58;;
33022;SDS011;19390;51.460;5.710;2023-08-07T00:38:53;11.65;;;3.33;;
33022;SDS011;19390;51.460;5.710;2023-08-07T00:41:19;12.20;;;2.45;;
33022;SDS011;19390;51.460;5.710;2023-08-07T00:43:45;17.15;;;2.92;;
33022;SDS011;19390;51.460;5.710;2023-08-07T00:46:11;10.43;;;3.08;;
33022;SDS011;19390;51.460;5.710;2023-08-07T00:48:36;10.38;;;3.05;;
33022;SDS011;19390;51.460;5.710;2023-08-07T00:51:02;17.20;;;3.40;;
33022;SDS011;19390;51.460;5.710;2023-08-07T00:53:29;9.38;;;2.97;;
33022;SDS011;19390;51.460;5.710;2023-08-07T00:55:55;12.70;;;2.80;;
33022;SDS011;19390;51.460;5.710;2023-08-07T00:58:22;8.43;;;2.70;;
33022;SDS011;19390;51.460;5.710;2023-08-07T01:00:48;10.18;;;2.38;;
33022;SDS011;19390;51.460;5.710;2023-08-07T01:03:14;11.63;;;2.83;;
33022;SDS011;19390;51.460;5.710;2023-08-07T01:05:40;10.52;;;2.35;;
33022;SDS011;19390;51.460;5.710;2023-08-07T01:08:05;13.35;;;2.60;;
33022;SDS011;19390;51.460;5.710;2023-08-07T01:10:34;8.50;;;2.63;;
33022;SDS011;19390;51.460;5.710;2023-08-07T01:13:13;11.98;;;2.30;;
33022;SDS011;19390;51.460;5.710;2023-08-07T01:15:44;10.32;;;2.97;;
33022;SDS011;19390;51.460;5.710;2023-08-07T01:18:13;13.32;;;2.47;;
33022;SDS011;19390;51.460;5.710;2023-08-07T01:20:38;14.00;;;2.70;;
33022;SDS011;19390;51.460;5.710;2023-08-07T01:23:04;15.27;;;2.70;;
33022;SDS011;19390;51.460;5.710;2023-08-07T01:25:30;13.70;;;2.13;;
33022;SDS011;19390;51.460;5.710;2023-08-07T01:27:59;12.90;;;2.10;;
33022;SDS011;19390;51.460;5.710;2023-08-07T01:30:50;14.68;;;2.58;;
33022;SDS011;19390;51.460;5.710;2023-08-07T01:33:21;12.18;;;2.70;;
33022;SDS011;19390;51.460;5.710;2023-08-07T01:35:53;11.75;;;2.80;;
33022;SDS011;19390;51.460;5.710;2023-08-07T01:38:21;14.48;;;2.55;;
33022;SDS011;19390;51.460;5.710;2023-08-07T01:40:50;17.80;;;2.30;;
33022;SDS011;19390;51.460;5.710;2023-08-07T01:43:16;12.70;;;2.15;;
33022;SDS011;19390;51.460;5.710;2023-08-07T01:45:43;14.43;;;2.42;;
33022;SDS011;19390;51.460;5.710;2023-08-07T01:48:09;12.98;;;2.70;;
33022;SDS011;19390;51.460;5.710;2023-08-07T01:50:35;11.27;;;3.28;;
33022;SDS011;19390;51.460;5.710;2023-08-07T01:53:01;12.13;;;2.58;;
33022;SDS011;19390;51.460;5.710;2023-08-07T01:55:27;10.20;;;2.47;;
33022;SDS011;19390;51.460;5.710;2023-08-07T01:57:53;16.90;;;2.72;;
33022;SDS011;19390;51.460;5.710;2023-08-07T02:00:18;18.00;;;3.10;;
33022;SDS011;19390;51.460;5.710;2023-08-07T02:02:44;10.13;;;2.75;;
33022;SDS011;19390;51.460;5.710;2023-08-07T02:05:11;11.18;;;2.85;;
33022;SDS011;19390;51.460;5.710;2023-08-07T02:07:37;12.30;;;3.00;;
33022;SDS011;19390;51.460;5.710;2023-08-07T02:10:03;13.70;;;3.75;;
33022;SDS011;19390;51.460;5.710;2023-08-07T02:12:29;13.93;;;2.63;;
33022;SDS011;19390;51.460;5.710;2023-08-07T02:14:57;12.70;;;2.75;;
33022;SDS011;19390;51.460;5.710;2023-08-07T02:17:24;11.57;;;2.72;;
33022;SDS011;19390;51.460;5.710;2023-08-07T02:19:50;10.88;;;2.30;;
33022;SDS011;19390;51.460;5.710;2023-08-07T02:22:15;11.32;;;2.65;;
33022;SDS011;19390;51.460;5.710;2023-08-07T02:24:41;7.28;;;2.40;;
33022;SDS011;19390;51.460;5.710;2023-08-07T02:27:06;5.70;;;1.95;;
33022;SDS011;19390;51.460;5.710;2023-08-07T02:29:32;8.18;;;2.63;;
33022;SDS011;19390;51.460;5.710;2023-08-07T02:31:59;10.48;;;2.72;;
33022;SDS011;19390;51.460;5.710;2023-08-07T02:34:27;11.57;;;2.67;;
33022;SDS011;19390;51.460;5.710;2023-08-07T02:36:53;11.10;;;2.63;;
33022;SDS011;19390;51.460;5.710;2023-08-07T02:39:19;11.38;;;2.72;;
33022;SDS011;19390;51.460;5.710;2023-08-07T02:41:46;13.07;;;2.83;;
33022;SDS011;19390;51.460;5.710;2023-08-07T02:44:11;9.10;;;2.55;;
33022;SDS011;19390;51.460;5.710;2023-08-07T02:46:37;9.70;;;2.85;;
33022;SDS011;19390;51.460;5.710;2023-08-07T02:49:02;7.70;;;2.55;;
33022;SDS011;19390;51.460;5.710;2023-08-07T02:51:29;11.50;;;2.90;;
33022;SDS011;19390;51.460;5.710;2023-08-07T02:53:55;12.95;;;3.38;;
33022;SDS011;19390;51.460;5.710;2023-08-07T02:56:21;17.20;;;2.72;;
33022;SDS011;19390;51.460;5.710;2023-08-07T02:58:46;9.77;;;2.83;;
33022;SDS011;19390;51.460;5.710;2023-08-07T03:01:12;10.55;;;3.63;;
33022;SDS011;19390;51.460;5.710;2023-08-07T03:03:38;10.18;;;3.20;;
33022;SDS011;19390;51.460;5.710;2023-08-07T03:06:04;10.85;;;2.97;;
33022;SDS011;19390;51.460;5.710;2023-08-07T03:08:29;16.20;;;3.20;;
33022;SDS011;19390;51.460;5.710;2023-08-07T03:10:56;13.52;;;3.13;;
33022;SDS011;19390;51.460;5.710;2023-08-07T03:13:22;11.38;;;3.10;;
33022;SDS011;19390;51.460;5.710;2023-08-07T03:15:49;14.65;;;3.58;;
33022;SDS011;19390;51.460;5.710;2023-08-07T03:18:15;17.80;;;3.13;;
33022;SDS011;19390;51.460;5.710;2023-08-07T03:20:42;10.30;;;2.83;;
33022;SDS011;19390;51.460;5.710;2023-08-07T03:23:08;12.20;;;3.10;;
33022;SDS011;19390;51.460;5.710;2023-08-07T03:25:34;11.32;;;3.25;;
33022;SDS011;19390;51.460;5.710;2023-08-07T03:28:00;13.65;;;3.13;;
33022;SDS011;19390;51.460;5.710;2023-08-07T03:30:25;16.92;;;3.42;;
33022;SDS011;19390;51.460;5.710;2023-08-07T03:32:51;13.60;;;3.45;;
33022;SDS011;19390;51.460;5.710;2023-08-07T03:35:17;11.50;;;3.30;;
33022;SDS011;19390;51.460;5.710;2023-08-07T03:37:43;14.45;;;3.72;;
33022;SDS011;19390;51.460;5.710;2023-08-07T03:40:09;10.07;;;3.33;;
33022;SDS011;19390;51.460;5.710;2023-08-07T03:42:35;17.20;;;3.78;;
33022;SDS011;19390;51.460;5.710;2023-08-07T03:45:00;14.23;;;3.72;;
33022;SDS011;19390;51.460;5.710;2023-08-07T03:47:26;19.15;;;4.90;;
33022;SDS011;19390;51.460;5.710;2023-08-07T03:49:51;16.17;;;4.68;;
33022;SDS011;19390;51.460;5.710;2023-08-07T03:52:17;17.00;;;3.67;;
33022;SDS011;19390;51.460;5.710;2023-08-07T03:54:43;12.23;;;3.63;;
33022;SDS011;19390;51.460;5.710;2023-08-07T03:57:08;9.85;;;3.03;;
33022;SDS011;19390;51.460;5.710;2023-08-07T03:59:35;10.70;;;3.67;;
33022;SDS011;19390;51.460;5.710;2023-08-07T04:02:01;12.68;;;3.40;;
33022;SDS011;19390;51.460;5.710;2023-08-07T04:04:27;12.35;;;3.53;;
33022;SDS011;19390;51.460;5.710;2023-08-07T04:06:52;13.32;;;3.15;;
33022;SDS011;19390;51.460;5.710;2023-08-07T04:09:18;11.95;;;3.15;;
33022;SDS011;19390;51.460;5.710;2023-08-07T04:11:44;7.95;;;3.58;;
33022;SDS011;19390;51.460;5.710;2023-08-07T04:14:09;13.23;;;3.20;;
33022;SDS011;19390;51.460;5.710;2023-08-07T04:16:35;10.13;;;3.10;;
33022;SDS011;19390;51.460;5.710;2023-08-07T04:19:02;11.05;;;3.38;;
33022;SDS011;19390;51.460;5.710;2023-08-07T04:21:27;16.92;;;3.90;;
33022;SDS011;19390;51.460;5.710;2023-08-07T04:23:55;13.10;;;3.25;;
33022;SDS011;19390;51.460;5.710;2023-08-07T04:26:20;13.07;;;3.65;;
33022;SDS011;19390;51.460;5.710;2023-08-07T04:28:46;14.02;;;3.42;;
33022;SDS011;19390;51.460;5.710;2023-08-07T04:31:11;15.20;;;3.88;;
33022;SDS011;19390;51.460;5.710;2023-08-07T04:33:37;12.63;;;3.95;;
33022;SDS011;19390;51.460;5.710;2023-08-07T04:36:03;11.75;;;3.47;;
33022;SDS011;19390;51.460;5.710;2023-08-07T04:38:29;17.63;;;3.72;;
33022;SDS011;19390;51.460;5.710;2023-08-07T04:40:55;14.38;;;4.25;;
33022;SDS011;19390;51.460;5.710;2023-08-07T04:43:20;14.95;;;4.15;;
33022;SDS011;19390;51.460;5.710;2023-08-07T04:45:46;11.90;;;3.42;;
33022;SDS011;19390;51.460;5.710;2023-08-07T04:48:12;18.27;;;3.83;;
33022;SDS011;19390;51.460;5.710;2023-08-07T04:50:38;15.68;;;3.42;;
33022;SDS011;19390;51.460;5.710;2023-08-07T04:53:04;13.93;;;4.32;;
33022;SDS011;19390;51.460;5.710;2023-08-07T04:55:30;12.55;;;3.20;;
33022;SDS011;19390;51.460;5.710;2023-08-07T04:57:57;14.45;;;3.65;;
33022;SDS011;19390;51.460;5.710;2023-08-07T05:00:23;11.18;;;3.15;;
33022;SDS011;19390;51.460;5.710;2023-08-07T05:02:49;12.88;;;3.97;;
33022;SDS011;19390;51.460;5.710;2023-08-07T05:05:15;15.10;;;3.50;;
33022;SDS011;19390;51.460;5.710;2023-08-07T05:07:41;12.85;;;3.00;;
33022;SDS011;19390;51.460;5.710;2023-08-07T05:10:07;16.08;;;3.50;;
33022;SDS011;19390;51.460;5.710;2023-08-07T05:12:33;9.95;;;3.25;;
33022;SDS011;19390;51.460;5.710;2023-08-07T05:14:59;11.85;;;2.95;;
33022;SDS011;19390;51.460;5.710;2023-08-07T05:17:24;10.40;;;3.15;;
33022;SDS011;19390;51.460;5.710;2023-08-07T05:19:50;12.13;;;2.75;;
33022;SDS011;19390;51.460;5.710;2023-08-07T05:22:16;11.90;;;3.17;;
33022;SDS011;19390;51.460;5.710;2023-08-07T05:24:42;8.18;;;2.53;;
33022;SDS011;19390;51.460;5.710;2023-08-07T05:27:08;7.22;;;2.38;;
33022;SDS011;19390;51.460;5.710;2023-08-07T05:29:34;12.52;;;2.38;;
33022;SDS011;19390;51.460;5.710;2023-08-07T05:32:08;9.95;;;2.38;;
33022;SDS011;19390;51.460;5.710;2023-08-07T05:34:37;11.60;;;3.13;;
33022;SDS011;19390;51.460;5.710;2023-08-07T05:37:03;8.48;;;3.13;;
33022;SDS011;19390;51.460;5.710;2023-08-07T05:39:29;12.57;;;2.72;;
33022;SDS011;19390;51.460;5.710;2023-08-07T05:41:54;9.07;;;2.53;;
33022;SDS011;19390;51.460;5.710;2023-08-07T05:44:22;7.78;;;2.45;;
33022;SDS011;19390;51.460;5.710;2023-08-07T05:46:51;14.68;;;3.65;;
33022;SDS011;19390;51.460;5.710;2023-08-07T05:49:16;13.65;;;2.85;;
33022;SDS011;19390;51.460;5.710;2023-08-07T05:51:42;10.02;;;2.53;;
33022;SDS011;19390;51.460;5.710;2023-08-07T05:54:08;9.88;;;2.25;;
33022;SDS011;19390;51.460;5.710;2023-08-07T05:56:34;11.70;;;2.72;;
33022;SDS011;19390;51.460;5.710;2023-08-07T05:58:59;9.32;;;2.53;;
33022;SDS011;19390;51.460;5.710;2023-08-07T06:01:25;14.93;;;2.90;;
33022;SDS011;19390;51.460;5.710;2023-08-07T06:03:57;12.95;;;2.92;;
33022;SDS011;19390;51.460;5.710;2023-08-07T06:06:23;10.15;;;2.78;;
33022;SDS011;19390;51.460;5.710;2023-08-07T06:08:50;10.77;;;3.00;;
33022;SDS011;19390;51.460;5.710;2023-08-07T06:11:15;9.45;;;2.65;;
33022;SDS011;19390;51.460;5.710;2023-08-07T06:13:42;10.13;;;2.70;;
33022;SDS011;19390;51.460;5.710;2023-08-07T06:16:07;10.07;;;3.20;;
33022;SDS011;19390;51.460;5.710;2023-08-07T06:18:33;12.15;;;3.20;;
33022;SDS011;19390;51.460;5.710;2023-08-07T06:20:59;9.32;;;2.78;;
33022;SDS011;19390;51.460;5.710;2023-08-07T06:23:24;18.02;;;3.25;;
33022;SDS011;19390;51.460;5.710;2023-08-07T06:25:50;9.32;;;3.20;;
33022;SDS011;19390;51.460;5.710;2023-08-07T06:28:16;13.45;;;3.05;;
33022;SDS011;19390;51.460;5.710;2023-08-07T06:30:41;10.98;;;2.70;;
33022;SDS011;19390;51.460;5.710;2023-08-07T06:33:07;13.50;;;3.47;;
33022;SDS011;19390;51.460;5.710;2023-08-07T06:35:39;11.85;;;2.90;;
33022;SDS011;19390;51.460;5.710;2023-08-07T06:38:05;15.53;;;2.60;;
33022;SDS011;19390;51.460;5.710;2023-08-07T06:40:31;9.48;;;2.13;;
33022;SDS011;19390;51.460;5.710;2023-08-07T06:42:56;14.13;;;3.35;;
33022;SDS011;19390;51.460;5.710;2023-08-07T06:45:22;14.15;;;2.88;;
33022;SDS011;19390;51.460;5.710;2023-08-07T06:47:48;16.13;;;2.85;;
33022;SDS011;19390;51.460;5.710;2023-08-07T06:50:13;12.18;;;2.78;;
33022;SDS011;19390;51.460;5.710;2023-08-07T06:52:39;10.88;;;2.65;;
33022;SDS011;19390;51.460;5.710;2023-08-07T06:55:05;16.08;;;2.58;;
33022;SDS011;19390;51.460;5.710;2023-08-07T06:57:31;11.73;;;2.35;;
33022;SDS011;19390;51.460;5.710;2023-08-07T06:59:57;14.70;;;3.20;;
33022;SDS011;19390;51.460;5.710;2023-08-07T07:02:22;14.27;;;2.83;;
33022;SDS011;19390;51.460;5.710;2023-08-07T07:04:48;19.23;;;2.55;;
33022;SDS011;19390;51.460;5.710;2023-08-07T07:07:14;6.78;;;1.95;;
33022;SDS011;19390;51.460;5.710;2023-08-07T07:09:39;9.52;;;2.28;;
33022;SDS011;19390;51.460;5.710;2023-08-07T07:12:05;14.98;;;3.05;;
33022;SDS011;19390;51.460;5.710;2023-08-07T07:14:32;9.50;;;2.38;;
33022;SDS011;19390;51.460;5.710;2023-08-07T07:16:58;12.82;;;2.38;;
33022;SDS011;19390;51.460;5.710;2023-08-07T07:19:24;10.88;;;2.08;;
33022;SDS011;19390;51.460;5.710;2023-08-07T07:21:50;10.43;;;2.30;;
33022;SDS011;19390;51.460;5.710;2023-08-07T07:24:15;15.65;;;2.05;;
33022;SDS011;19390;51.460;5.710;2023-08-07T07:26:41;13.00;;;2.88;;
33022;SDS011;19390;51.460;5.710;2023-08-07T07:29:06;9.85;;;1.55;;
33022;SDS011;19390;51.460;5.710;2023-08-07T07:31:32;10.70;;;1.80;;
33022;SDS011;19390;51.460;5.710;2023-08-07T07:33:57;8.02;;;2.17;;
33022;SDS011;19390;51.460;5.710;2023-08-07T07:36:23;9.68;;;2.47;;
33022;SDS011;19390;51.460;5.710;2023-08-07T07:38:49;8.65;;;2.15;;
33022;SDS011;19390;51.460;5.710;2023-08-07T07:41:14;12.20;;;2.22;;
33022;SDS011;19390;51.460;5.710;2023-08-07T07:43:40;10.18;;;2.10;;
33022;SDS011;19390;51.460;5.710;2023-08-07T07:46:06;9.80;;;2.42;;
33022;SDS011;19390;51.460;5.710;2023-08-07T07:48:32;9.75;;;2.10;;
33022;SDS011;19390;51.460;5.710;2023-08-07T07:51:01;11.13;;;2.13;;
33022;SDS011;19390;51.460;5.710;2023-08-07T07:53:28;10.07;;;2.15;;
33022;SDS011;19390;51.460;5.710;2023-08-07T07:55:53;13.18;;;2.30;;
33022;SDS011;19390;51.460;5.710;2023-08-07T07:58:19;12.50;;;2.22;;
33022;SDS011;19390;51.460;5.710;2023-08-07T08:00:45;13.75;;;2.58;;
33022;SDS011;19390;51.460;5.710;2023-08-07T08:03:11;9.80;;;2.33;;
33022;SDS011;19390;51.460;5.710;2023-08-07T08:05:37;12.45;;;2.47;;
33022;SDS011;19390;51.460;5.710;2023-08-07T08:08:05;9.25;;;2.55;;
33022;SDS011;19390;51.460;5.710;2023-08-07T08:10:32;14.85;;;2.90;;
33022;SDS011;19390;51.460;5.710;2023-08-07T08:12:59;11.32;;;2.60;;
33022;SDS011;19390;51.460;5.710;2023-08-07T08:15:24;13.32;;;2.65;;
33022;SDS011;19390;51.460;5.710;2023-08-07T08:17:50;10.43;;;2.55;;
33022;SDS011;19390;51.460;5.710;2023-08-07T08:20:16;10.85;;;2.30;;
33022;SDS011;19390;51.460;5.710;2023-08-07T08:22:43;9.13;;;2.33;;
33022;SDS011;19390;51.460;5.710;2023-08-07T08:25:09;9.40;;;2.55;;
33022;SDS011;19390;51.460;5.710;2023-08-07T08:27:36;9.48;;;2.10;;
33022;SDS011;19390;51.460;5.710;2023-08-07T08:30:05;8.38;;;2.50;;
33022;SDS011;19390;51.460;5.710;2023-08-07T08:32:31;9.93;;;1.95;;
33022;SDS011;19390;51.460;5.710;2023-08-07T08:34:57;5.53;;;1.63;;
33022;SDS011;19390;51.460;5.710;2023-08-07T08:37:23;6.65;;;1.92;;
33022;SDS011;19390;51.460;5.710;2023-08-07T08:39:49;6.85;;;1.75;;
33022;SDS011;19390;51.460;5.710;2023-08-07T08:42:15;6.15;;;1.88;;
33022;SDS011;19390;51.460;5.710;2023-08-07T08:44:48;8.10;;;1.83;;
33022;SDS011;19390;51.460;5.710;2023-08-07T08:47:17;8.13;;;1.90;;
33022;SDS011;19390;51.460;5.710;2023-08-07T08:49:44;6.22;;;1.50;;
33022;SDS011;19390;51.460;5.710;2023-08-07T08:52:12;5.63;;;1.80;;
33022;SDS011;19390;51.460;5.710;2023-08-07T08:54:38;8.32;;;1.55;;
33022;SDS011;19390;51.460;5.710;2023-08-07T08:57:08;7.57;;;1.80;;
33022;SDS011;19390;51.460;5.710;2023-08-07T08:59:34;6.18;;;1.40;;
33022;SDS011;19390;51.460;5.710;2023-08-07T09:01:59;8.77;;;1.63;;
33022;SDS011;19390;51.460;5.710;2023-08-07T09:04:25;5.40;;;1.58;;
33022;SDS011;19390;51.460;5.710;2023-08-07T09:06:50;6.13;;;1.63;;
33022;SDS011;19390;51.460;5.710;2023-08-07T09:09:17;7.13;;;1.92;;
33022;SDS011;19390;51.460;5.710;2023-08-07T09:11:46;6.75;;;1.60;;
33022;SDS011;19390;51.460;5.710;2023-08-07T09:14:17;7.38;;;1.42;;
33022;SDS011;19390;51.460;5.710;2023-08-07T09:16:49;8.55;;;2.00;;
33022;SDS011;19390;51.460;5.710;2023-08-07T09:19:15;7.25;;;1.65;;
33022;SDS011;19390;51.460;5.710;2023-08-07T09:21:41;6.50;;;1.73;;
33022;SDS011;19390;51.460;5.710;2023-08-07T09:24:07;12.02;;;1.90;;
33022;SDS011;19390;51.460;5.710;2023-08-07T09:26:33;6.22;;;1.50;;
33022;SDS011;19390;51.460;5.710;2023-08-07T09:28:59;7.90;;;1.70;;
33022;SDS011;19390;51.460;5.710;2023-08-07T09:31:24;6.38;;;1.73;;
33022;SDS011;19390;51.460;5.710;2023-08-07T09:33:51;6.00;;;1.50;;
33022;SDS011;19390;51.460;5.710;2023-08-07T09:36:17;6.53;;;1.60;;
33022;SDS011;19390;51.460;5.710;2023-08-07T09:38:44;5.85;;;1.58;;
33022;SDS011;19390;51.460;5.710;2023-08-07T09:41:17;6.18;;;1.38;;
33022;SDS011;19390;51.460;5.710;2023-08-07T09:43:44;8.68;;;1.58;;
33022;SDS011;19390;51.460;5.710;2023-08-07T09:46:09;4.80;;;1.05;;
33022;SDS011;19390;51.460;5.710;2023-08-07T09:48:39;5.72;;;1.13;;
33022;SDS011;19390;51.460;5.710;2023-08-07T09:51:06;7.65;;;1.45;;
33022;SDS011;19390;51.460;5.710;2023-08-07T09:53:32;5.25;;;1.35;;
33022;SDS011;19390;51.460;5.710;2023-08-07T09:55:58;6.88;;;1.58;;
33022;SDS011;19390;51.460;5.710;2023-08-07T09:58:24;5.80;;;1.35;;
33022;SDS011;19390;51.460;5.710;2023-08-07T10:00:50;5.45;;;1.30;;
33022;SDS011;19390;51.460;5.710;2023-08-07T10:03:18;4.43;;;1.10;;
33022;SDS011;19390;51.460;5.710;2023-08-07T10:05:44;6.32;;;1.70;;
33022;SDS011;19390;51.460;5.710;2023-08-07T10:08:10;5.25;;;1.40;;
33022;SDS011;19390;51.460;5.710;2023-08-07T10:10:37;3.72;;;1.60;;
33022;SDS011;19390;51.460;5.710;2023-08-07T10:13:03;5.88;;;1.83;;
33022;SDS011;19390;51.460;5.710;2023-08-07T10:15:33;4.35;;;1.60;;
33022;SDS011;19390;51.460;5.710;2023-08-07T10:17:59;6.25;;;1.70;;
33022;SDS011;19390;51.460;5.710;2023-08-07T10:20:26;7.57;;;1.35;;
33022;SDS011;19390;51.460;5.710;2023-08-07T10:22:53;8.25;;;1.77;;
33022;SDS011;19390;51.460;5.710;2023-08-07T10:25:23;4.75;;;1.38;;
33022;SDS011;19390;51.460;5.710;2023-08-07T10:27:50;4.88;;;1.40;;
33022;SDS011;19390;51.460;5.710;2023-08-07T10:30:18;2.65;;;1.00;;
33022;SDS011;19390;51.460;5.710;2023-08-07T10:32:45;3.88;;;1.30;;
33022;SDS011;19390;51.460;5.710;2023-08-07T10:35:24;6.38;;;1.50;;
33022;SDS011;19390;51.460;5.710;2023-08-07T10:37:51;2.08;;;1.25;;
33022;SDS011;19390;51.460;5.710;2023-08-07T10:40:18;6.50;;;1.48;;
33022;SDS011;19390;51.460;5.710;2023-08-07T10:42:52;3.80;;;0.90;;
33022;SDS011;19390;51.460;5.710;2023-08-07T10:45:22;4.00;;;1.20;;
33022;SDS011;19390;51.460;5.710;2023-08-07T10:47:56;4.15;;;1.10;;
33022;SDS011;19390;51.460;5.710;2023-08-07T10:50:33;6.72;;;1.30;;
33022;SDS011;19390;51.460;5.710;2023-08-07T10:53:01;2.83;;;1.15;;
33022;SDS011;19390;51.460;5.710;2023-08-07T10:55:52;3.80;;;1.15;;
33022;SDS011;19390;51.460;5.710;2023-08-07T11:03:26;3.72;;;1.00;;
33022;SDS011;19390;51.460;5.710;2023-08-07T11:05:52;2.63;;;0.90;;
33022;SDS011;19390;51.460;5.710;2023-08-07T11:08:22;2.35;;;0.82;;
33022;SDS011;19390;51.460;5.710;2023-08-07T11:10:49;5.63;;;0.90;;
33022;SDS011;19390;51.460;5.710;2023-08-07T11:13:16;3.50;;;1.30;;
33022;SDS011;19390;51.460;5.710;2023-08-07T11:15:42;5.45;;;1.42;;
33022;SDS011;19390;51.460;5.710;2023-08-07T11:18:08;4.05;;;1.25;;
33022;SDS011;19390;51.460;5.710;2023-08-07T11:20:34;3.78;;;1.38;;
33022;SDS011;19390;51.460;5.710;2023-08-07T11:23:04;3.30;;;1.63;;
33022;SDS011;19390;51.460;5.710;2023-08-07T11:25:30;5.80;;;1.40;;
33022;SDS011;19390;51.460;5.710;2023-08-07T11:27:56;2.00;;;1.00;;
33022;SDS011;19390;51.460;5.710;2023-08-07T11:30:21;6.68;;;1.42;;
33022;SDS011;19390;51.460;5.710;2023-08-07T11:32:47;3.90;;;1.25;;
33022;SDS011;19390;51.460;5.710;2023-08-07T11:35:13;3.03;;;1.30;;
33022;SDS011;19390;51.460;5.710;2023-08-07T11:37:46;3.58;;;1.05;;
33022;SDS011;19390;51.460;5.710;2023-08-07T11:40:21;2.72;;;1.20;;
33022;SDS011;19390;51.460;5.710;2023-08-07T11:42:47;3.00;;;1.10;;
33022;SDS011;19390;51.460;5.710;2023-08-07T11:45:13;4.05;;;1.38;;
33022;SDS011;19390;51.460;5.710;2023-08-07T11:47:40;2.72;;;1.00;;
33022;SDS011;19390;51.460;5.710;2023-08-07T11:50:09;2.78;;;1.15;;
33022;SDS011;19390;51.460;5.710;2023-08-07T11:52:36;4.72;;;1.20;;
33022;SDS011;19390;51.460;5.710;2023-08-07T11:55:08;2.95;;;0.82;;
33022;SDS011;19390;51.460;5.710;2023-08-07T11:57:37;3.78;;;1.15;;
33022;SDS011;19390;51.460;5.710;2023-08-07T12:00:08;5.00;;;1.40;;
33022;SDS011;19390;51.460;5.710;2023-08-07T12:02:41;6.25;;;1.38;;
33022;SDS011;19390;51.460;5.710;2023-08-07T12:05:08;5.18;;;1.60;;
33022;SDS011;19390;51.460;5.710;2023-08-07T12:07:38;2.72;;;1.30;;
33022;SDS011;19390;51.460;5.710;2023-08-07T12:10:07;3.58;;;1.13;;
33022;SDS011;19390;51.460;5.710;2023-08-07T12:12:36;4.33;;;1.30;;
33022;SDS011;19390;51.460;5.710;2023-08-07T12:15:02;3.17;;;1.20;;
33022;SDS011;19390;51.460;5.710;2023-08-07T12:17:32;1.92;;;1.15;;
33022;SDS011;19390;51.460;5.710;2023-08-07T12:19:57;5.85;;;1.55;;
33022;SDS011;19390;51.460;5.710;2023-08-07T12:22:23;4.47;;;1.52;;
33022;SDS011;19390;51.460;5.710;2023-08-07T12:24:51;7.13;;;1.30;;
33022;SDS011;19390;51.460;5.710;2023-08-07T12:27:18;5.47;;;1.80;;
33022;SDS011;19390;51.460;5.710;2023-08-07T12:29:44;3.35;;;1.20;;
33022;SDS011;19390;51.460;5.710;2023-08-07T12:32:10;3.00;;;1.20;;
33022;SDS011;19390;51.460;5.710;2023-08-07T12:34:35;3.67;;;1.55;;
33022;SDS011;19390;51.460;5.710;2023-08-07T12:37:02;1.73;;;1.05;;
33022;SDS011;19390;51.460;5.710;2023-08-07T12:39:29;4.68;;;1.20;;
33022;SDS011;19390;51.460;5.710;2023-08-07T12:41:54;3.63;;;1.38;;
33022;SDS011;19390;51.460;5.710;2023-08-07T12:44:20;5.22;;;1.45;;
33022;SDS011;19390;51.460;5.710;2023-08-07T12:46:46;2.97;;;1.27;;
33022;SDS011;19390;51.460;5.710;2023-08-07T12:49:11;2.70;;;1.60;;
33022;SDS011;19390;51.460;5.710;2023-08-07T12:51:37;3.70;;;1.40;;
33022;SDS011;19390;51.460;5.710;2023-08-07T12:54:02;4.90;;;1.33;;
33022;SDS011;19390;51.460;5.710;2023-08-07T12:56:28;4.43;;;1.42;;
33022;SDS011;19390;51.460;5.710;2023-08-07T12:58:54;3.50;;;1.60;;
33022;SDS011;19390;51.460;5.710;2023-08-07T13:01:20;5.22;;;1.80;;
33022;SDS011;19390;51.460;5.710;2023-08-07T13:03:45;6.57;;;1.50;;
33022;SDS011;19390;51.460;5.710;2023-08-07T13:06:11;5.55;;;2.15;;
33022;SDS011;19390;51.460;5.710;2023-08-07T13:08:37;8.27;;;2.10;;
33022;SDS011;19390;51.460;5.710;2023-08-07T13:11:02;5.88;;;2.55;;
33022;SDS011;19390;51.460;5.710;2023-08-07T13:13:28;8.25;;;2.38;;
33022;SDS011;19390;51.460;5.710;2023-08-07T13:15:55;9.95;;;2.92;;
33022;SDS011;19390;51.460;5.710;2023-08-07T13:18:21;4.97;;;1.90;;
33022;SDS011;19390;51.460;5.710;2023-08-07T13:20:47;9.68;;;2.60;;
33022;SDS011;19390;51.460;5.710;2023-08-07T13:23:13;5.38;;;2.42;;
33022;SDS011;19390;51.460;5.710;2023-08-07T13:25:40;4.93;;;2.30;;
33022;SDS011;19390;51.460;5.710;2023-08-07T13:28:06;5.45;;;2.10;;
33022;SDS011;19390;51.460;5.710;2023-08-07T13:30:32;5.22;;;1.95;;
33022;SDS011;19390;51.460;5.710;2023-08-07T13:32:58;4.95;;;1.90;;
33022;SDS011;19390;51.460;5.710;2023-08-07T13:35:23;4.40;;;1.80;;
33022;SDS011;19390;51.460;5.710;2023-08-07T13:37:49;8.60;;;2.13;;
33022;SDS011;19390;51.460;5.710;2023-08-07T13:40:15;5.40;;;2.20;;
33022;SDS011;19390;51.460;5.710;2023-08-07T13:42:40;7.22;;;2.67;;
33022;SDS011;19390;51.460;5.710;2023-08-07T13:45:06;6.07;;;1.92;;
33022;SDS011;19390;51.460;5.710;2023-08-07T13:47:32;5.82;;;2.30;;
33022;SDS011;19390;51.460;5.710;2023-08-07T13:49:58;8.20;;;2.05;;
33022;SDS011;19390;51.460;5.710;2023-08-07T13:52:23;7.38;;;2.00;;
33022;SDS011;19390;51.460;5.710;2023-08-07T13:54:50;5.32;;;1.80;;
33022;SDS011;19390;51.460;5.710;2023-08-07T13:57:15;3.13;;;1.50;;
33022;SDS011;19390;51.460;5.710;2023-08-07T13:59:41;7.15;;;2.22;;
33022;SDS011;19390;51.460;5.710;2023-08-07T14:02:07;3.90;;;1.55;;
33022;SDS011;19390;51.460;5.710;2023-08-07T14:04:33;6.97;;;1.90;;
33022;SDS011;19390;51.460;5.710;2023-08-07T14:06:59;4.70;;;2.00;;
33022;SDS011;19390;51.460;5.710;2023-08-07T14:09:25;6.95;;;2.05;;
33022;SDS011;19390;51.460;5.710;2023-08-07T14:11:50;6.28;;;2.08;;
33022;SDS011;19390;51.460;5.710;2023-08-07T14:14:16;4.38;;;2.03;;
33022;SDS011;19390;51.460;5.710;2023-08-07T14:16:42;4.65;;;2.00;;
33022;SDS011;19390;51.460;5.710;2023-08-07T14:19:08;5.10;;;1.83;;
33022;SDS011;19390;51.460;5.710;2023-08-07T14:21:33;5.82;;;1.88;;
33022;SDS011;19390;51.460;5.710;2023-08-07T14:23:59;5.22;;;2.28;;
33022;SDS011;19390;51.460;5.710;2023-08-07T14:26:25;6.00;;;2.13;;
33022;SDS011;19390;51.460;5.710;2023-08-07T14:28:50;7.25;;;2.33;;
33022;SDS011;19390;51.460;5.710;2023-08-07T14:31:16;6.80;;;2.10;;
33022;SDS011;19390;51.460;5.710;2023-08-07T14:33:41;5.53;;;2.00;;
33022;SDS011;19390;51.460;5.710;2023-08-07T14:36:07;4.63;;;2.10;;
33022;SDS011;19390;51.460;5.710;2023-08-07T14:38:33;5.43;;;1.95;;
33022;SDS011;19390;51.460;5.710;2023-08-07T14:40:58;6.13;;;2.08;;
33022;SDS011;19390;51.460;5.710;2023-08-07T14:43:24;4.85;;;2.00;;